Time;durP1;ratioP1;P1;durP2;ratioP2;P2;SDS_P1;SDS_P2;PMS_P1;PMS_P2;Temp;Humidity;BMP_temperature;BMP_pressure;BME280_temperature;BME280_humidity;BME280_pressure;Samples;Min_cycle;Max_cycle;Signal;HPM_P1;HPM_P2
2023/03/09 00:00:34;;;;;;;41.50;29.25;;;;;;;18.41;73.19;99172.59;4907560;29;20043;-59
2023/03/09 00:03:24;;;;;;;38.33;28.45;;;;;;;18.41;72.65;99170.72;4888117;29;20072;-59
2023/03/09 00:06:06;;;;;;;37.97;27.67;;;;;;;18.40;73.04;99179.84;4901765;29;20075;-57
2023/03/09 00:08:59;;;;;;;40.65;28.13;;;;;;;18.40;72.78;99161.06;4886766;29;20047;-58
2023/03/09 00:11:47;;;;;;;43.17;28.98;;;;;;;18.55;73.22;99171.34;4909778;29;20519;-57
2023/03/09 00:14:42;;;;;;;54.35;28.35;;;;;;;18.35;72.74;99178.88;4900579;29;20043;-58
2023/03/09 00:17:31;;;;;;;38.70;26.52;;;;;;;18.33;72.74;99189.00;4908299;29;20543;-58
2023/03/09 00:20:20;;;;;;;38.17;25.42;;;;;;;18.28;72.60;99181.66;4920025;29;20056;-59
2023/03/09 00:23:08;;;;;;;44.30;26.20;;;;;;;18.29;72.79;99174.44;4918730;29;20111;-58
2023/03/09 00:25:57;;;;;;;40.00;26.80;;;;;;;18.23;73.07;99181.53;4888822;29;20056;-59
2023/03/09 00:28:40;;;;;;;37.95;27.10;;;;;;;18.04;73.40;99179.16;4919490;29;20043;-61
2023/03/09 00:31:30;;;;;;;40.80;25.90;;;;;;;18.10;73.63;99197.03;4888364;29;20131;-60
2023/03/09 00:34:13;;;;;;;42.13;27.90;;;;;;;18.12;73.42;99197.59;4918683;29;20522;-57
2023/03/09 00:37:04;;;;;;;41.67;25.85;;;;;;;18.02;73.34;99203.50;4892635;29;20060;-57
2023/03/09 00:39:47;;;;;;;41.10;28.15;;;;;;;18.11;73.44;99214.72;4909790;29;20728;-56
2023/03/09 00:42:36;;;;;;;39.28;26.30;;;;;;;18.21;73.21;99218.50;4927868;29;20078;-57
2023/03/09 00:45:18;;;;;;;41.13;26.00;;;;;;;18.07;73.00;99213.53;4915928;29;20058;-59
2023/03/09 00:48:08;;;;;;;37.95;25.60;;;;;;;18.12;73.33;99216.34;4923913;29;20142;-59
2023/03/09 00:50:51;;;;;;;36.95;25.75;;;;;;;18.09;73.37;99214.16;4932923;29;20048;-55
2023/03/09 00:53:41;;;;;;;36.30;25.88;;;;;;;18.24;73.22;99225.25;4927221;29;20083;-59
2023/03/09 00:56:29;;;;;;;30.52;22.33;;;;;;;18.96;71.04;99216.06;4920285;29;20201;-58
2023/03/09 00:59:18;;;;;;;30.08;19.90;;;;;;;18.93;71.58;99218.41;4922034;29;20047;-57
2023/03/09 01:02:07;;;;;;;38.05;25.90;;;;;;;18.58;70.71;99224.56;4924531;29;20044;-58
2023/03/09 01:04:52;;;;;;;42.72;25.30;;;;;;;18.45;71.62;99232.78;4915206;29;20044;-59
2023/03/09 01:07:50;;;;;;;30.30;22.15;;;;;;;18.71;73.40;99240.44;4903200;29;20048;-61
2023/03/09 01:10:25;;;;;;;32.22;24.10;;;;;;;19.43;68.44;99235.63;4895539;29;20051;-60
2023/03/09 01:13:22;;;;;;;39.17;23.98;;;;;;;18.77;70.58;99247.53;4891742;29;20052;-59
2023/03/09 01:16:05;;;;;;;32.88;24.27;;;;;;;18.35;71.82;99253.97;4913798;29;20098;-59
2023/03/09 01:18:55;;;;;;;43.83;27.73;;;;;;;18.07;73.26;99259.94;4918649;29;20055;-61
2023/03/09 01:21:44;;;;;;;37.53;26.05;;;;;;;18.22;73.20;99259.53;4926381;29;20055;-57
2023/03/09 01:24:33;;;;;;;35.85;26.35;;;;;;;18.06;73.67;99268.19;4927516;29;20900;-60
2023/03/09 01:27:15;;;;;;;37.53;24.80;;;;;;;18.03;73.91;99274.00;4901760;29;20059;-60
2023/03/09 01:30:04;;;;;;;44.08;25.95;;;;;;;18.32;72.90;99271.31;4932435;28;20050;-59
2023/03/09 01:32:46;;;;;;;32.65;24.40;;;;;;;17.89;73.43;99274.19;4917860;29;20062;-57
2023/03/09 01:35:37;;;;;;;36.85;23.90;;;;;;;17.79;74.06;99286.50;4880614;29;20059;-57
2023/03/09 01:38:20;;;;;;;39.95;25.08;;;;;;;17.77;74.40;99284.03;4899132;29;20059;-59
2023/03/09 01:41:09;;;;;;;34.47;25.45;;;;;;;17.78;74.58;99287.53;4912090;29;20044;-60
2023/03/09 01:43:52;;;;;;;36.78;25.08;;;;;;;18.23;72.61;99296.03;4890606;29;20051;-56
2023/03/09 01:46:56;;;;;;;32.35;24.50;;;;;;;17.89;73.12;99286.75;4899891;29;20059;-58
2023/03/09 01:49:48;;;;;;;42.03;25.90;;;;;;;17.97;74.48;99304.41;4918849;29;20122;-61
2023/03/09 01:52:40;;;;;;;38.13;25.25;;;;;;;17.89;75.64;99300.97;4924723;29;20048;-58
2023/03/09 01:55:32;;;;;;;34.88;24.42;;;;;;;17.97;74.21;99302.53;4926602;29;20110;-61
2023/03/09 01:58:27;;;;;;;42.13;25.50;;;;;;;17.99;73.75;99315.72;4925386;29;20051;-60
2023/03/09 02:01:10;;;;;;;44.13;24.40;;;;;;;18.06;73.76;99316.44;4919646;29;20059;-61
2023/03/09 02:04:11;;;;;;;42.85;25.67;;;;;;;18.11;73.56;99319.28;4894334;29;20062;-60
2023/03/09 02:06:54;;;;;;;34.38;23.85;;;;;;;18.37;72.64;99324.28;4907382;29;20053;-60
2023/03/09 02:09:58;;;;;;;37.20;22.67;;;;;;;18.35;71.78;99324.53;4891919;29;20056;-59
2023/03/09 02:12:52;;;;;;;39.40;22.88;;;;;;;18.19;72.63;99327.03;4909708;29;20055;-59
2023/03/09 02:15:48;;;;;;;32.22;23.50;;;;;;;18.00;71.90;99320.88;4902703;29;20051;-59
2023/03/09 02:18:39;;;;;;;36.30;23.25;;;;;;;18.13;72.72;99341.31;4924637;29;20079;-59
2023/03/09 02:22:01;;;;;;;37.78;24.42;;;;;;;18.24;72.27;99338.69;4926014;29;20831;-59
2023/03/09 02:25:06;;;;;;;34.10;22.10;;;;;;;18.89;70.06;99335.34;4923722;29;20047;-56
2023/03/09 02:27:59;;;;;;;38.53;23.92;;;;;;;18.63;69.66;99320.47;4920635;29;20047;-58
2023/03/09 02:30:56;;;;;;;31.15;22.73;;;;;;;19.33;67.80;99342.84;4915702;29;20135;-57
2023/03/09 02:33:32;;;;;;;33.53;22.65;;;;;;;20.09;65.48;99333.78;4895520;29;20055;-60
2023/03/09 02:36:29;;;;;;;33.72;21.30;;;;;;;20.01;64.35;99339.50;4902714;29;20139;-59
2023/03/09 02:39:15;;;;;;;34.72;22.15;;;;;;;19.99;65.45;99337.09;4896072;29;20115;-59
2023/03/09 02:42:12;;;;;;;35.30;21.48;;;;;;;20.70;64.12;99351.94;4910576;29;20051;-57
2023/03/09 02:45:02;;;;;;;35.97;20.48;;;;;;;20.95;63.26;99349.69;4912528;29;20551;-56
2023/03/09 02:47:46;;;;;;;37.45;22.27;;;;;;;21.70;59.35;99343.84;4926709;29;20114;-60
2023/03/09 02:50:38;;;;;;;33.83;19.42;;;;;;;22.07;57.20;99357.59;4929797;29;20067;-59
2023/03/09 02:53:21;;;;;;;40.53;21.08;;;;;;;22.06;58.44;99363.22;4914726;29;20044;-57
2023/03/09 02:56:17;;;;;;;36.13;20.35;;;;;;;22.62;56.08;99359.28;4908374;29;20047;-60
2023/03/09 02:58:52;;;;;;;37.63;19.67;;;;;;;23.01;54.78;99366.19;4913104;29;20059;-59
2023/03/09 03:01:49;;;;;;;29.55;18.95;;;;;;;23.77;52.79;99366.75;4913236;29;20799;-57
2023/03/09 03:04:24;;;;;;;40.63;20.60;;;;;;;23.72;54.32;99367.53;4897742;29;20043;-59
2023/03/09 03:07:14;;;;;;;31.92;19.27;;;;;;;23.12;53.21;99380.59;4921163;29;20095;-59
2023/03/09 03:09:56;;;;;;;41.08;19.23;;;;;;;23.81;52.09;99375.19;4929665;29;20073;-59
2023/03/09 03:12:45;;;;;;;32.65;20.50;;;;;;;23.59;51.83;99386.94;4912831;29;20105;-59
2023/03/09 03:15:42;;;;;;;30.98;19.25;;;;;;;23.47;52.49;99380.09;4901985;29;20440;-59
2023/03/09 03:18:32;;;;;;;56.65;21.52;;;;;;;23.24;51.38;99387.44;4893231;29;20044;-58
2023/03/09 03:21:22;;;;;;;33.13;19.88;;;;;;;22.83;54.44;99393.56;4905014;29;20061;-58
2023/03/09 03:24:04;;;;;;;;;;;;;;;22.51;54.40;99396.16;4917560;29;20051;-60
2023/03/09 03:26:54;;;;;;;38.10;19.25;;;;;;;22.81;53.52;99391.13;4921585;29;20033;-60
2023/03/09 03:29:36;;;;;;;25.58;18.80;;;;;;;23.38;52.31;99397.81;4934546;28;20463;-59
2023/03/09 03:32:26;;;;;;;33.35;19.90;;;;;;;23.85;51.72;99398.75;4913222;29;20183;-59
2023/03/09 03:35:08;;;;;;;29.17;18.15;;;;;;;23.48;51.14;99415.00;4922042;29;20079;-59
2023/03/09 03:37:57;;;;;;;33.30;17.83;;;;;;;23.27;53.00;99405.06;4928479;29;20043;-58
2023/03/09 03:40:40;;;;;;;37.88;18.98;;;;;;;23.38;51.97;99422.16;4900411;29;20138;-59
2023/03/09 03:43:31;;;;;;;32.63;19.15;;;;;;;23.56;52.58;99429.91;4912550;29;20118;-58
2023/03/09 03:46:28;;;;;;;26.38;18.80;;;;;;;23.24;50.52;99430.69;4911952;29;20056;-59
2023/03/09 03:49:03;;;;;;;36.80;19.85;;;;;;;22.92;51.04;99427.16;4885078;29;20493;-59
2023/03/09 03:51:53;;;;;;;32.90;19.13;;;;;;;23.27;51.59;99434.78;4908709;29;20048;-58
2023/03/09 03:54:43;;;;;;;32.45;19.33;;;;;;;23.48;51.00;99439.31;4893075;29;20048;-58
2023/03/09 03:57:26;;;;;;;26.27;17.27;;;;;;;23.79;51.70;99443.06;4892642;29;20051;-59
2023/03/09 04:00:19;;;;;;;36.60;19.52;;;;;;;24.06;50.34;99437.56;4908582;29;20051;-58
2023/03/09 04:03:14;;;;;;;42.90;20.98;;;;;;;24.03;49.97;99429.97;4903094;29;20051;-60
2023/03/09 04:05:56;;;;;;;40.30;21.27;;;;;;;24.04;48.51;99428.88;4897578;29;20052;-60
2023/03/09 04:08:52;;;;;;;33.13;19.75;;;;;;;23.95;48.44;99443.97;4912566;29;20048;-59
2023/03/09 04:11:28;;;;;;;29.50;20.67;;;;;;;24.12;49.50;99436.50;4927312;29;20047;-59
2023/03/09 04:14:24;;;;;;;33.90;19.70;;;;;;;24.10;49.21;99442.19;4900420;29;20753;-58
2023/03/09 04:17:09;;;;;;;34.60;21.80;;;;;;;24.41;49.53;99453.19;4926380;29;20058;-59
2023/03/09 04:19:58;;;;;;;33.70;20.60;;;;;;;24.90;48.03;99438.22;4886580;29;20252;-61
2023/03/09 04:22:50;;;;;;;33.75;20.52;;;;;;;25.05;47.31;99443.66;4893817;29;20048;-58
2023/03/09 04:25:34;;;;;;;40.75;22.55;;;;;;;24.51;47.63;99445.13;4915779;29;20048;-58
2023/03/09 04:28:24;;;;;;;36.72;22.05;;;;;;;24.71;47.75;99447.88;4896734;29;20060;-60
2023/03/09 04:31:08;;;;;;;39.78;22.85;;;;;;;24.97;47.02;99452.31;4913135;29;20476;-59
2023/03/09 04:33:57;;;;;;;44.80;24.10;;;;;;;24.89;45.78;99442.00;4910998;29;20044;-58
2023/03/09 04:36:40;;;;;;;42.88;24.15;;;;;;;25.19;46.91;99443.13;4916149;29;20060;-59
2023/03/09 04:39:36;;;;;;;52.60;24.92;;;;;;;25.50;45.29;99445.59;4926946;29;20067;-57
2023/03/09 04:42:12;;;;;;;47.80;24.05;;;;;;;26.17;45.84;99452.59;4904972;29;20046;-58
2023/03/09 04:45:09;;;;;;;46.40;25.52;;;;;;;26.70;43.27;99458.41;4910406;29;20051;-57
2023/03/09 04:47:47;;;;;;;41.83;23.90;;;;;;;26.06;43.49;99452.91;4908051;29;20044;-61
2023/03/09 04:50:44;;;;;;;39.45;25.65;;;;;;;26.40;44.71;99458.53;4912988;29;20052;-62
2023/03/09 04:53:20;;;;;;;45.05;25.25;;;;;;;26.58;43.57;99452.47;4918619;29;20083;-61
2023/03/09 04:56:18;;;;;;;49.08;25.90;;;;;;;26.83;43.21;99455.88;4893712;29;20112;-61
2023/03/09 04:59:00;;;;;;;54.42;27.98;;;;;;;26.22;43.54;99449.91;4902821;29;20052;-60
2023/03/09 05:01:57;;;;;;;51.88;28.77;;;;;;;26.48;42.72;99439.75;4900911;29;20043;-60
2023/03/09 05:04:42;;;;;;;45.70;28.08;;;;;;;26.66;42.58;99439.13;4903803;29;20187;-62
2023/03/09 05:07:39;;;;;;;55.75;28.83;;;;;;;26.75;44.48;99442.06;4900759;29;20058;-61
2023/03/09 05:10:14;;;;;;;45.65;27.05;;;;;;;27.15;42.19;99438.31;4903562;29;20044;-60
2023/03/09 05:13:12;;;;;;;48.38;27.33;;;;;;;27.31;42.33;99452.63;4908922;29;20139;-60
2023/03/09 05:16:03;;;;;;;50.22;27.55;;;;;;;27.73;41.39;99441.97;4921979;29;20142;-60
2023/03/09 05:19:01;;;;;;;46.83;26.63;;;;;;;27.81;40.01;99438.59;4912705;29;20425;-59
2023/03/09 05:21:38;;;;;;;45.13;23.83;;;;;;;27.49;39.51;99438.34;4919864;29;20062;-61
2023/03/09 05:24:34;;;;;;;47.67;25.02;;;;;;;27.85;40.72;99434.22;4919041;29;20060;-59
2023/03/09 05:27:15;;;;;;;48.42;23.90;;;;;;;27.92;39.04;99431.97;4923402;28;20052;-59
2023/03/09 05:30:05;;;;;;;36.65;20.48;;;;;;;27.93;38.11;99432.75;4911537;29;20540;-59
2023/03/09 05:32:49;;;;;;;41.80;22.65;;;;;;;27.78;38.79;99430.22;4926697;29;20134;-56
2023/03/09 05:35:50;;;;;;;39.05;20.75;;;;;;;27.82;38.79;99434.78;4922305;29;20054;-58
2023/03/09 05:38:26;;;;;;;44.38;21.88;;;;;;;28.18;39.24;99434.44;4902452;29;20075;-61
2023/03/09 05:41:17;;;;;;;34.53;19.70;;;;;;;28.04;37.65;99429.66;4917578;29;20064;-60
2023/03/09 05:44:08;;;;;;;32.72;17.60;;;;;;;28.58;39.55;99423.06;4906847;29;20056;-61
2023/03/09 05:46:59;;;;;;;23.40;14.38;;;;;;;29.18;35.92;99424.13;4909878;29;20707;-61
2023/03/09 05:49:54;;;;;;;28.55;15.88;;;;;;;28.55;35.23;99424.44;4914604;29;20058;-60
2023/03/09 05:52:36;;;;;;;25.50;14.57;;;;;;;29.42;37.30;99421.31;4888028;29;20578;-61
2023/03/09 05:55:28;;;;;;;29.55;15.30;;;;;;;29.89;37.56;99422.97;4916777;29;20066;-61
2023/03/09 05:58:11;;;;;;;24.88;14.73;;;;;;;29.75;34.78;99425.63;4900062;29;20059;-62
2023/03/09 06:01:01;;;;;;;38.88;16.05;;;;;;;29.71;36.69;99419.16;4920400;29;20460;-59
2023/03/09 06:03:57;;;;;;;34.30;15.60;;;;;;;29.74;35.69;99423.22;4921394;29;20535;-61
2023/03/09 06:06:35;;;;;;;35.60;15.82;;;;;;;29.42;33.26;99424.03;4917219;29;20063;-58
2023/03/09 06:09:27;;;;;;;28.05;16.60;;;;;;;29.45;34.60;99415.25;4906595;29;20052;-60
2023/03/09 06:12:12;;;;;;;37.03;16.38;;;;;;;29.60;35.10;99417.72;4904164;29;20055;-61
2023/03/09 06:15:03;;;;;;;28.25;16.25;;;;;;;29.18;36.02;99421.38;4923111;29;20581;-61
2023/03/09 06:17:52;;;;;;;35.08;17.80;;;;;;;29.24;35.13;99417.47;4927103;29;20071;-61
2023/03/09 06:20:30;;;;;;;29.80;17.63;;;;;;;29.35;33.76;99415.41;4928486;29;20051;-59
2023/03/09 06:23:26;;;;;;;42.78;17.20;;;;;;;29.34;34.06;99408.34;4925706;29;20051;-62
2023/03/09 06:26:07;;;;;;;28.08;14.15;;;;;;;29.28;32.85;99410.31;4927914;29;20739;-62
2023/03/09 06:29:01;;;;;;;33.22;14.93;;;;;;;29.82;32.25;99400.69;4930328;29;20452;-60
2023/03/09 06:31:47;;;;;;;31.33;14.32;;;;;;;30.05;33.71;99405.16;4905457;29;20059;-61
2023/03/09 06:34:39;;;;;;;25.40;13.90;;;;;;;29.57;32.70;99401.94;4935024;29;20081;-62
2023/03/09 06:37:24;;;;;;;31.90;13.68;;;;;;;29.87;34.05;99395.94;4917368;29;20413;-60
2023/03/09 06:40:20;;;;;;;24.92;13.73;;;;;;;30.37;33.66;99390.56;4930360;29;20048;-58
2023/03/09 06:42:55;;;;;;;22.52;12.68;;;;;;;30.63;34.19;99383.47;4910125;29;20131;-59
2023/03/09 06:45:46;;;;;;;26.70;13.60;;;;;;;30.38;35.22;99381.25;4926449;29;20048;-60
2023/03/09 06:48:31;;;;;;;31.23;14.68;;;;;;;29.89;30.24;99377.34;4912779;29;20054;-59
2023/03/09 06:51:20;;;;;;;29.30;15.45;;;;;;;30.06;34.25;99373.19;4930203;29;20500;-58
2023/03/09 06:54:02;;;;;;;20.90;13.88;;;;;;;29.88;34.16;99369.44;4914642;29;20079;-60
2023/03/09 06:56:59;;;;;;;25.48;14.27;;;;;;;29.94;33.28;99360.03;4935947;29;20083;-59
2023/03/09 06:59:44;;;;;;;31.95;16.25;;;;;;;29.97;31.15;99361.34;4928979;29;20063;-59
2023/03/09 07:02:33;;;;;;;31.20;15.00;;;;;;;29.87;33.04;99348.69;4928959;29;20060;-58
2023/03/09 07:05:16;;;;;;;31.92;15.77;;;;;;;30.15;31.96;99352.22;4928485;29;20071;-60
2023/03/09 07:08:13;;;;;;;27.90;12.73;;;;;;;30.44;31.07;99346.44;4936407;29;20052;-59
2023/03/09 07:10:49;;;;;;;24.70;12.48;;;;;;;30.82;33.04;99347.75;4930190;29;20052;-60
2023/03/09 07:13:46;;;;;;;25.33;13.57;;;;;;;30.45;30.18;99335.19;4929244;29;20187;-60
2023/03/09 07:16:35;;;;;;;20.92;12.98;;;;;;;30.06;30.41;99340.41;4933157;29;20055;-59
2023/03/09 07:19:31;;;;;;;24.58;11.88;;;;;;;30.37;31.60;99332.34;4946934;28;20059;-61
2023/03/09 07:22:07;;;;;;;22.33;10.70;;;;;;;30.57;32.02;99327.28;4948643;29;20051;-58
2023/03/09 07:24:57;;;;;;;24.52;10.52;;;;;;;30.48;32.92;99323.66;4938440;29;20056;-59
2023/03/09 07:27:39;;;;;;;22.60;9.35;;;;;;;30.32;30.46;99312.22;4942612;28;20046;-60
2023/03/09 07:30:35;;;;;;;21.13;9.40;;;;;;;30.37;32.71;99316.75;4948011;28;20134;-61
2023/03/09 07:33:10;;;;;;;22.98;11.55;;;;;;;30.42;35.15;99305.72;4945023;29;20153;-60
2023/03/09 07:36:10;;;;;;;17.50;7.97;;;;;;;30.37;29.15;99299.56;4931522;29;20055;-60
2023/03/09 07:38:47;;;;;;;13.93;7.88;;;;;;;30.24;30.02;99293.00;4934067;29;20062;-60
2023/03/09 07:41:42;;;;;;;19.92;7.30;;;;;;;30.29;30.58;99293.72;4930829;29;20051;-59
2023/03/09 07:44:17;;;;;;;14.30;8.68;;;;;;;30.29;33.87;99284.69;4948153;29;20051;-60
2023/03/09 07:47:07;;;;;;;15.10;8.63;;;;;;;30.31;31.46;99286.03;4936507;29;20369;-60
2023/03/09 07:49:56;;;;;;;17.38;9.48;;;;;;;30.13;31.83;99278.78;4930999;29;20122;-59
2023/03/09 07:52:38;;;;;;;19.60;7.97;;;;;;;30.04;27.34;99271.59;4924222;29;20055;-60
2023/03/09 07:55:29;;;;;;;10.50;5.90;;;;;;;30.10;27.80;99265.72;4928511;29;20558;-60
2023/03/09 07:58:11;;;;;;;14.80;5.88;;;;;;;30.21;30.80;99266.31;4942887;29;20062;-59
2023/03/09 08:01:00;;;;;;;18.55;6.65;;;;;;;30.02;27.63;99262.88;4938346;29;20459;-59
2023/03/09 08:03:47;;;;;;;10.23;6.70;;;;;;;30.07;30.15;99258.13;4946920;29;20050;-59
2023/03/09 08:06:36;;;;;;;14.60;7.60;;;;;;;30.31;31.78;99249.69;4948022;29;20051;-59
2023/03/09 08:09:18;;;;;;;13.88;7.20;;;;;;;30.33;31.60;99248.25;4947970;29;20162;-60
2023/03/09 08:12:07;;;;;;;10.80;6.35;;;;;;;30.13;30.60;99250.63;4931116;29;20062;-59
2023/03/09 08:14:49;;;;;;;10.88;6.50;;;;;;;29.95;29.95;99243.38;4929621;29;20058;-60
2023/03/09 08:17:45;;;;;;;15.27;6.85;;;;;;;29.86;32.28;99235.06;4946811;28;20039;-60
2023/03/09 08:20:20;;;;;;;15.68;7.47;;;;;;;29.66;33.76;99235.47;4942351;29;20150;-60
2023/03/09 08:23:10;;;;;;;14.57;6.93;;;;;;;29.60;30.78;99232.06;4930307;29;20543;-60
2023/03/09 08:26:00;;;;;;;16.17;6.90;;;;;;;29.87;31.02;99226.59;4917540;29;20434;-60
2023/03/09 08:28:49;;;;;;;15.02;6.57;;;;;;;29.90;31.10;99227.91;4947590;29;20109;-60
2023/03/09 08:31:31;;;;;;;17.70;7.45;;;;;;;29.88;31.66;99225.47;4942793;29;20055;-61
2023/03/09 08:34:27;;;;;;;13.63;6.90;;;;;;;29.92;30.60;99213.97;4914586;29;20052;-60
2023/03/09 08:37:03;;;;;;;14.10;7.40;;;;;;;29.77;30.89;99210.41;4923164;29;20048;-61
2023/03/09 08:39:52;;;;;;;16.00;7.47;;;;;;;29.71;31.23;99205.34;4910495;29;20067;-60
2023/03/09 08:42:34;;;;;;;14.88;7.65;;;;;;;29.61;32.41;99200.91;4937216;28;20066;-59
2023/03/09 08:45:23;;;;;;;18.85;7.40;;;;;;;29.65;31.12;99201.13;4934568;29;20067;-60
2023/03/09 08:48:13;;;;;;;18.25;8.30;;;;;;;29.71;31.40;99199.88;4909101;29;20052;-59
2023/03/09 08:50:55;;;;;;;10.63;7.18;;;;;;;29.57;30.27;99193.63;4909461;29;20059;-60
2023/03/09 08:53:45;;;;;;;16.08;8.45;;;;;;;29.51;31.87;99189.41;4921563;29;20138;-60
2023/03/09 08:56:40;;;;;;;16.50;6.55;;;;;;;29.63;29.99;99181.50;4940019;29;20147;-59
2023/03/09 08:59:15;;;;;;;14.75;6.88;;;;;;;29.65;32.61;99182.00;4939393;29;20055;-60
2023/03/09 09:02:14;;;;;;;13.57;6.57;;;;;;;29.64;29.64;99175.75;4928312;29;20492;-59
2023/03/09 09:04:50;;;;;;;12.88;5.82;;;;;;;29.59;31.39;99175.03;4943636;28;20111;-59
2023/03/09 09:07:45;;;;;;;;;;;;;;;29.54;30.90;99165.03;4945589;29;20711;-60
2023/03/09 09:10:20;;;;;;;12.20;5.82;;;;;;;29.56;30.33;99168.28;4927588;29;19935;-60
2023/03/09 09:13:22;;;;;;;13.40;5.30;;;;;;;29.49;28.28;99161.59;4908807;29;20048;-60
2023/03/09 09:16:12;;;;;;;10.82;5.05;;;;;;;29.48;29.29;99159.97;4930235;29;20446;-59
2023/03/09 09:19:01;;;;;;;12.65;5.68;;;;;;;29.45;29.64;99155.94;4926006;29;20047;-59
2023/03/09 09:21:52;;;;;;;14.75;6.40;;;;;;;29.37;31.01;99157.47;4932300;29;20142;-61
2023/03/09 09:24:36;;;;;;;9.52;5.00;;;;;;;29.34;29.29;99149.88;4928848;29;20079;-60
2023/03/09 09:27:25;;;;;;;15.00;5.50;;;;;;;29.38;27.26;99141.91;4931335;29;20083;-59
2023/03/09 09:30:09;;;;;;;9.38;5.13;;;;;;;29.37;29.11;99143.00;4929876;29;20051;-59
2023/03/09 09:32:59;;;;;;;13.60;5.25;;;;;;;29.40;28.68;99131.47;4919274;29;20441;-59
2023/03/09 09:35:42;;;;;;;18.85;6.90;;;;;;;29.46;30.46;99135.72;4938848;28;20526;-60
2023/03/09 09:38:33;;;;;;;20.98;6.25;;;;;;;29.29;29.05;99128.16;4944772;29;20518;-60
2023/03/09 09:41:45;;;;;;;16.92;7.05;;;;;;;29.31;28.93;99125.94;4927999;29;20043;-60
2023/03/09 09:44:45;;;;;;;14.43;6.85;;;;;;;29.34;28.26;99125.31;4937046;29;20138;-60
2023/03/09 09:47:31;;;;;;;14.05;6.03;;;;;;;29.31;29.78;99115.00;4910279;29;20119;-61
2023/03/09 09:50:20;;;;;;;13.85;6.20;;;;;;;29.21;31.53;99120.63;4942396;29;20466;-60
2023/03/09 09:53:23;;;;;;;9.90;6.40;;;;;;;29.14;31.15;99114.78;4921647;29;20106;-60
2023/03/09 09:56:19;;;;;;;14.45;7.05;;;;;;;28.99;32.60;99117.81;4947822;28;20651;-58
2023/03/09 09:59:10;;;;;;;16.10;6.88;;;;;;;28.96;34.68;99115.69;4936385;29;20081;-60
2023/03/09 10:02:16;;;;;;;15.63;8.50;;;;;;;28.99;33.31;99117.81;4913692;29;20048;-59
2023/03/09 10:05:23;;;;;;;17.63;7.65;;;;;;;28.98;33.96;99105.31;4948778;28;20054;-59
2023/03/09 10:08:30;;;;;;;16.00;7.22;;;;;;;28.72;34.48;99101.47;4917273;29;20135;-59
2023/03/09 10:11:46;;;;;;;16.30;7.25;;;;;;;28.55;35.80;99108.25;4949935;29;20693;-57
2023/03/09 10:14:58;;;;;;;9.18;6.22;;;;;;;28.46;35.16;99096.41;4936341;29;20051;-59
2023/03/09 10:18:01;;;;;;;14.43;6.57;;;;;;;28.31;36.07;99098.63;4930211;29;20040;-60
2023/03/09 10:20:59;;;;;;;14.20;7.35;;;;;;;28.24;36.17;99100.91;4931221;29;20818;-60
2023/03/09 10:23:35;;;;;;;14.63;7.38;;;;;;;28.22;34.97;99093.03;4930706;29;20048;-60
2023/03/09 10:26:43;;;;;;;17.98;7.28;;;;;;;28.06;34.44;99106.06;4929780;29;20052;-60
2023/03/09 10:29:47;;;;;;;11.93;6.88;;;;;;;27.95;36.21;99104.63;4930807;29;20075;-59
2023/03/09 10:33:01;;;;;;;15.65;7.57;;;;;;;28.07;36.08;99096.78;4930454;29;20551;-60
2023/03/09 10:36:08;;;;;;;16.33;7.75;;;;;;;28.12;35.87;99094.00;4927931;29;20054;-59
2023/03/09 10:39:24;;;;;;;16.45;8.07;;;;;;;28.15;35.26;99097.25;4913409;29;20760;-59
2023/03/09 10:42:14;;;;;;;14.68;8.30;;;;;;;28.15;35.31;99089.88;4927972;29;20050;-59
2023/03/09 10:45:12;;;;;;;19.58;8.48;;;;;;;28.13;36.04;99090.19;4930990;29;20047;-59
2023/03/09 10:47:52;;;;;;;15.20;8.60;;;;;;;28.18;36.53;99091.22;4941769;28;20560;-60
2023/03/09 10:51:06;;;;;;;22.75;8.00;;;;;;;28.13;36.67;99086.66;4930518;29;20059;-60
2023/03/09 10:53:46;;;;;;;16.90;8.50;;;;;;;28.08;34.69;99082.06;4930593;29;20051;-59
2023/03/09 10:56:51;;;;;;;16.23;7.53;;;;;;;27.95;35.22;99076.56;4930175;29;20058;-59
2023/03/09 10:59:30;;;;;;;16.02;6.97;;;;;;;27.86;34.88;99083.78;4911603;29;20051;-60
2023/03/09 11:02:38;;;;;;;19.30;7.95;;;;;;;27.82;35.78;99078.13;4922457;29;20075;-60
2023/03/09 11:05:25;;;;;;;12.77;6.65;;;;;;;27.86;34.77;99072.91;4929383;29;20119;-60
2023/03/09 11:08:27;;;;;;;11.20;6.53;;;;;;;27.82;34.29;99072.69;4919203;29;20055;-60
2023/03/09 11:11:36;;;;;;;14.07;6.97;;;;;;;27.79;34.90;99073.28;4930348;29;20055;-59
2023/03/09 11:14:29;;;;;;;10.68;6.85;;;;;;;27.69;33.98;99066.09;4929691;29;20056;-60
2023/03/09 11:17:52;;;;;;;16.35;6.32;;;;;;;27.68;35.70;99066.38;4936887;29;20051;-59
2023/03/09 11:20:49;;;;;;;13.95;6.82;;;;;;;27.68;35.44;99072.63;4909178;29;20154;-61
2023/03/09 11:23:28;;;;;;;14.05;6.68;;;;;;;27.66;34.48;99068.59;4949347;28;20039;-58
2023/03/09 11:26:39;;;;;;;14.50;6.80;;;;;;;27.66;32.35;99069.38;4947042;28;20050;-59
2023/03/09 11:29:37;;;;;;;13.20;6.80;;;;;;;27.65;34.21;99066.97;4937436;29;20071;-60
2023/03/09 11:32:32;;;;;;;12.50;6.95;;;;;;;27.58;35.15;99061.88;4943422;28;20051;-60
2023/03/09 11:35:15;;;;;;;15.45;7.57;;;;;;;27.53;33.91;99061.94;4935406;28;20055;-60
2023/03/09 11:38:20;;;;;;;12.27;6.45;;;;;;;27.49;34.21;99066.38;4936737;29;20539;-59
2023/03/09 11:41:13;;;;;;;13.00;7.65;;;;;;;27.41;36.38;99063.47;4927032;29;20101;-59
2023/03/09 11:44:27;;;;;;;14.68;8.07;;;;;;;27.36;35.95;99063.53;4929535;29;20048;-61
2023/03/09 11:47:31;;;;;;;13.40;7.80;;;;;;;27.31;36.37;99058.97;4928969;29;20059;-61
2023/03/09 11:50:26;;;;;;;15.20;8.35;;;;;;;27.29;37.99;99066.63;4920637;29;20055;-60
2023/03/09 11:53:17;;;;;;;19.17;9.63;;;;;;;27.22;37.89;99069.69;4929841;29;20087;-61
2023/03/09 11:56:29;;;;;;;19.00;8.98;;;;;;;27.15;39.14;99066.53;4911220;29;20115;-60
2023/03/09 11:59:23;;;;;;;20.67;9.48;;;;;;;27.08;38.12;99066.09;4920754;29;20162;-60
2023/03/09 12:02:21;;;;;;;14.80;9.13;;;;;;;27.08;38.17;99057.94;4933998;29;20131;-60
2023/03/09 12:05:04;;;;;;;22.58;8.90;;;;;;;27.02;36.38;99069.97;4929478;29;20137;-59
2023/03/09 12:08:01;;;;;;;16.17;9.52;;;;;;;27.02;35.25;99063.72;4928712;29;20055;-61
2023/03/09 12:10:54;;;;;;;15.82;8.70;;;;;;;26.98;35.49;99062.69;4924796;29;20046;-60
2023/03/09 12:13:57;;;;;;;15.20;7.38;;;;;;;26.94;34.57;99062.47;4896463;29;20113;-60
2023/03/09 12:16:49;;;;;;;13.13;6.53;;;;;;;26.87;31.64;99056.53;4946317;28;20051;-60
2023/03/09 12:19:37;;;;;;;15.80;5.90;;;;;;;26.82;32.48;99068.25;4947559;28;20495;-61
2023/03/09 12:22:37;;;;;;;11.40;5.90;;;;;;;26.75;32.01;99065.09;4925809;29;20397;-60
2023/03/09 12:25:22;;;;;;;14.43;5.93;;;;;;;26.74;33.30;99059.94;4930088;29;20432;-59
2023/03/09 12:28:25;;;;;;;8.32;5.25;;;;;;;26.70;31.33;99061.59;4909021;29;20142;-59
2023/03/09 12:31:30;;;;;;;12.77;6.32;;;;;;;26.63;31.84;99063.88;4929485;29;20129;-60
2023/03/09 12:34:47;;;;;;;12.80;5.90;;;;;;;26.49;32.85;99063.75;4942859;28;20495;-61
2023/03/09 12:37:28;;;;;;;10.60;6.95;;;;;;;26.40;34.22;99070.88;4931981;29;20052;-59
2023/03/09 12:40:47;;;;;;;22.75;6.95;;;;;;;26.28;34.17;99065.84;4911514;29;20129;-60
2023/03/09 12:43:35;;;;;;;13.90;6.72;;;;;;;26.21;34.58;99072.69;4928337;29;20055;-60
2023/03/09 12:46:56;;;;;;;13.85;5.72;;;;;;;26.16;34.39;99072.69;4934334;29;20051;-61
2023/03/09 12:49:59;;;;;;;18.02;7.03;;;;;;;26.08;35.41;99073.31;4946922;29;20051;-60
2023/03/09 12:52:54;;;;;;;18.35;6.97;;;;;;;25.97;35.50;99079.94;4947822;28;20043;-60
2023/03/09 12:55:35;;;;;;;17.83;7.45;;;;;;;25.90;36.00;99082.97;4932506;29;20130;-60
2023/03/09 12:58:25;;;;;;;17.10;8.35;;;;;;;25.82;36.43;99080.84;4909070;29;20056;-60
2023/03/09 13:01:28;;;;;;;19.70;7.65;;;;;;;25.81;38.06;99079.22;4911552;29;20468;-61
2023/03/09 13:04:30;;;;;;;16.67;7.70;;;;;;;25.72;38.20;99079.00;4915439;29;20143;-60
2023/03/09 13:07:18;;;;;;;21.63;7.72;;;;;;;25.64;38.67;99076.91;4927021;29;20394;-60
2023/03/09 13:10:11;;;;;;;24.67;8.73;;;;;;;25.54;39.27;99073.44;4946988;28;20047;-62